Hua Hin, Thailand
Current Conditions -  °F | °C
As of 3:30 PM on Sunday 21 Dec 2014 (Local Time) from VTBU Reporting Station
Clear Clear  
Wind Chill: 33°   Ceiling: Unl
Heat Index: 33°   Visibility: 6mi
Dew Point: 14°   Wind: 9mph
Humidity: 31%   Direction: 120°ESE
Pressure: 29.77"   Gusts: NA
Location:  12.57°N, 99.95°E
Report Text: VTBU 210830Z 12008KT 9999 CAVOK 33/14 Q1008 A2978
Loading
Personal Weather Stations






























Interactive Weather Map New forecast layout! Learn more

10-Day Weather Forecast

Advertisements
Track Severe Weather on mobile